Fellsmere, Florida
Current Conditions -  °F | °C
As of 10:53 AM on Monday 26 Jan 2015 (Local Time) from KVRB Reporting Station
Broken Clouds Broken Clouds  
Wind Chill: 18°   Ceiling: 3800
Heat Index: 18°   Visibility: 10mi
Dew Point: 12°   Wind: 25mph
Humidity: 65%   Direction: 280°W
Pressure: 29.91"   Gusts: NA
Location:  27.77°N, 80.6°W
Report Text: KVRB 261553Z 28022KT 10SM FEW022 SCT030 BKN038 18/12 A2991 RMK AO2 PK WND 29026/1553 SLP127 T01830117
Loading
Personal Weather Stations






























Interactive Weather Map New forecast layout! Learn more

10-Day Weather Forecast

Advertisements
Track Severe Weather on mobile